Fairbanks, AK

7:05 PM AKDT on July 21, 2017 (GMT -0800)
Townsite | | Change Station

Elev 446 ft 64.84 °N, 147.74 °W | Updated 30 seconds ago

Mostly Cloudy
Mostly Cloudy
72.0 °F
Feels Like 77 °F
N
0.0
Wind Variable Wind from East
Gusts 0.0 mph

Today
High -- | Low -- °F
--% Chance of Precip.
Yesterday
High -- | Low -- °F
Precip. -- in
Pressure 29.85 in
Visibility 10.0 miles
Clouds Scattered Clouds 6000 ft
Mostly Cloudy 8000 ft
Heat Index 77 °F
Dew Point 55 °F
Humidity 55%
Rainfall 0.02 in
Snow Depth Not available.
4:14 AM 11:37 PM
Waning Crescent, 2% visible
METAR PAFB 220258Z 35005KT 10SM SCT060 BKN080 21/09 A2984 RMK AO2A SLP106 T02130087 56002 $
Pressure 29.85 in
Visibility 10.0 miles
Clouds Scattered Clouds 6000 ft
Mostly Cloudy 8000 ft
Heat Index 77 °F
Dew Point 55 °F
Humidity 55%
Rainfall 0.02 in
Snow Depth Not available.
4:14 AM 11:37 PM
Waning Crescent, 2% visible
METAR PAFB 220258Z 35005KT 10SM SCT060 BKN080 21/09 A2984 RMK AO2A SLP106 T02130087 56002 $

Get Severe Weather Alerts

Thanks for signing up!

Be on the lookout for a verification email in your inbox.

You'll start receiving the daily forecast at 6 AM.

×

10-Day Weather Forecast

Almanac

Astronomy

Jul. 21, 2017 Rise Set
Actual Time
Civil Twilight
Nautical Twilight
Astronomical Twilight
Moon
Length of Visible Light
Length of Day
Tomorrow will be .
, % of the Moon is Illuminated

Today's Extremes

State Highs State Lows

Community

WunderPhotos

Category 6

Welcome to Category 6. This is the collective home for Weather Underground's featured writeups by Dr. Jeff Masters (right), Bob Henson (left), Chris Burt, and other regular contributors.

Nearby

Air Quality

  Air Quality AQ Index Pollutant
Not available.

Snow Depth

Station Depth Elevation

Earthquake Activity

City Distance Mag. Time & Date
Minimum magnitude displayed is 2.5.

Coastal Water Temperatures

Place Temperature

Stations

Nearby Weather Stations

Station Location Temp. Windchill Dew Point Humidity Wind Precip. Elev Updated Type
                   

Watches & Warnings

There are currently no watches in effect.